createdAt,value
2022-08-17T00:00:43.644Z,20.02
2022-08-17T00:03:11.675Z,19.98
2022-08-17T00:05:44.902Z,19.92
2022-08-17T00:08:13.292Z,19.88
2022-08-17T00:10:42.111Z,19.83
2022-08-17T00:13:11.815Z,19.78
2022-08-17T00:15:40.165Z,19.74
2022-08-17T00:18:53.877Z,19.71
2022-08-17T00:20:59.075Z,19.70
2022-08-17T00:23:27.921Z,19.66
2022-08-17T00:25:56.213Z,19.65
2022-08-17T00:28:25.209Z,19.67
2022-08-17T00:30:54.095Z,19.66
2022-08-17T00:33:26.495Z,19.66
2022-08-17T00:35:55.153Z,19.65
2022-08-17T00:38:23.474Z,19.66
2022-08-17T00:40:55.837Z,19.62
2022-08-17T00:43:30.415Z,19.58
2022-08-17T00:45:59.073Z,19.56
2022-08-17T00:48:29.864Z,19.54
2022-08-17T00:51:02.459Z,19.53
2022-08-17T00:53:32.940Z,19.52
2022-08-17T00:56:03.498Z,19.52
2022-08-17T00:58:36.203Z,19.50
2022-08-17T01:01:06.180Z,19.47
2022-08-17T01:03:36.054Z,19.43
2022-08-17T01:06:05.110Z,19.38
2022-08-17T01:08:33.877Z,19.35
2022-08-17T01:11:02.686Z,19.26
2022-08-17T01:13:39.799Z,19.25
2022-08-17T01:16:13.197Z,19.22
2022-08-17T01:18:42.819Z,19.22
2022-08-17T01:21:14.761Z,19.17
2022-08-17T01:23:44.225Z,19.08
2022-08-17T01:26:12.249Z,19.02
2022-08-17T01:28:54.242Z,19.01
2022-08-17T01:31:25.763Z,18.93
2022-08-17T01:33:53.832Z,18.89
2022-08-17T01:36:22.215Z,18.87
2022-08-17T01:38:51.714Z,18.87
2022-08-17T01:41:20.432Z,18.86
2022-08-17T01:43:51.049Z,18.87
2022-08-17T01:46:24.184Z,18.84
2022-08-17T01:48:52.231Z,18.82
2022-08-17T01:51:21.442Z,18.73
2022-08-17T01:53:53.908Z,18.70
2022-08-17T01:56:24.177Z,18.67
2022-08-17T01:58:52.390Z,18.61
2022-08-17T02:01:22.639Z,18.56
2022-08-17T02:03:56.296Z,18.55
2022-08-17T02:06:30.191Z,18.54
2022-08-17T02:09:02.213Z,18.52
2022-08-17T02:11:33.078Z,18.50
2022-08-17T02:14:03.231Z,18.47
2022-08-17T02:16:37.585Z,18.42
2022-08-17T02:19:08.059Z,18.41
2022-08-17T02:21:36.888Z,18.38
2022-08-17T02:24:07.323Z,18.34
2022-08-17T02:26:35.416Z,18.24
2022-08-17T02:29:04.185Z,18.23
2022-08-17T02:31:32.539Z,18.23
2022-08-17T02:34:04.538Z,18.23
2022-08-17T02:36:34.527Z,18.21
2022-08-17T02:39:02.971Z,18.21
2022-08-17T02:41:32.572Z,18.20
2022-08-17T02:44:01.146Z,18.16
2022-08-17T02:46:30.496Z,18.16
2022-08-17T02:48:58.628Z,18.16
2022-08-17T02:51:27.338Z,18.14
2022-08-17T02:54:38.988Z,18.15
2022-08-17T02:56:44.929Z,18.12
2022-08-17T02:59:12.937Z,18.12
2022-08-17T03:01:41.061Z,18.11
2022-08-17T03:04:09.120Z,18.10
2022-08-17T03:06:37.531Z,18.09
2022-08-17T03:09:06.085Z,18.08
2022-08-17T03:11:34.143Z,18.09
2022-08-17T03:14:03.513Z,18.04
2022-08-17T03:16:31.481Z,18.05
2022-08-17T03:18:59.440Z,18.05
2022-08-17T03:21:27.419Z,18.06
2022-08-17T03:23:55.449Z,18.05
2022-08-17T03:26:23.421Z,18.06
2022-08-17T03:28:56.721Z,18.02
2022-08-17T03:31:26.131Z,18.00
2022-08-17T03:33:54.148Z,18.00
2022-08-17T03:36:22.318Z,17.97
2022-08-17T03:38:50.272Z,17.94
2022-08-17T03:41:19.061Z,17.96
2022-08-17T03:43:47.003Z,17.98
2022-08-17T03:46:35.265Z,17.95
2022-08-17T03:49:24.388Z,17.95
2022-08-17T03:52:10.032Z,18.00
2022-08-17T03:54:55.631Z,18.01
2022-08-17T03:57:23.595Z,18.00
2022-08-17T03:59:51.568Z,18.00
2022-08-17T04:02:22.987Z,17.98
2022-08-17T04:04:52.669Z,17.97
2022-08-17T04:07:21.883Z,17.97
2022-08-17T04:09:49.929Z,17.98
2022-08-17T04:12:19.390Z,17.98
2022-08-17T04:14:52.827Z,17.94
2022-08-17T04:17:24.262Z,17.90
2022-08-17T04:19:54.059Z,17.93
2022-08-17T04:22:31.819Z,17.91
2022-08-17T04:25:04.848Z,17.92
2022-08-17T04:27:32.889Z,17.93
2022-08-17T04:30:00.884Z,17.92
2022-08-17T04:33:04.974Z,17.94
2022-08-17T04:35:22.018Z,17.91
2022-08-17T04:37:50.617Z,17.91
2022-08-17T04:40:37.510Z,17.93
2022-08-17T04:43:08.546Z,17.94
2022-08-17T04:45:40.443Z,17.93
2022-08-17T04:48:23.025Z,17.91
2022-08-17T04:50:59.237Z,17.92
2022-08-17T04:53:28.040Z,17.97
2022-08-17T04:55:57.687Z,17.98
2022-08-17T04:58:25.703Z,18.01
2022-08-17T05:00:53.843Z,18.05
2022-08-17T05:03:21.830Z,18.06
2022-08-17T05:05:50.163Z,18.08
2022-08-17T05:08:21.290Z,18.08
2022-08-17T05:10:50.231Z,18.09
2022-08-17T05:13:22.147Z,18.08
2022-08-17T05:15:53.358Z,18.07
2022-08-17T05:18:21.304Z,18.10
2022-08-17T05:20:52.688Z,18.15
2022-08-17T05:23:24.204Z,18.18
2022-08-17T05:25:54.662Z,18.23
2022-08-17T05:28:27.524Z,18.25
2022-08-17T05:30:57.966Z,18.27
2022-08-17T05:33:28.576Z,18.28
2022-08-17T05:35:59.077Z,18.30
2022-08-17T05:38:29.830Z,18.31
2022-08-17T05:40:58.848Z,18.33
2022-08-17T05:43:28.614Z,18.34
2022-08-17T05:46:02.433Z,18.32
2022-08-17T05:48:35.642Z,18.35
2022-08-17T05:51:29.193Z,18.40
2022-08-17T05:54:08.600Z,18.45
2022-08-17T05:57:02.989Z,18.50
2022-08-17T05:59:36.512Z,18.50
2022-08-17T06:02:09.443Z,18.54
2022-08-17T06:04:48.041Z,18.60
2022-08-17T06:07:21.845Z,18.66
2022-08-17T06:10:05.135Z,18.73
2022-08-17T06:12:40.022Z,18.77
2022-08-17T06:15:29.418Z,18.79
2022-08-17T06:17:58.994Z,18.86
2022-08-17T06:20:28.476Z,18.93
2022-08-17T06:23:03.178Z,19.00
2022-08-17T06:25:36.658Z,19.06
2022-08-17T06:28:07.712Z,19.09
2022-08-17T06:30:59.337Z,19.16
2022-08-17T06:33:34.460Z,19.24
2022-08-17T06:36:15.972Z,19.29
2022-08-17T06:38:49.911Z,19.39
2022-08-17T06:41:25.231Z,19.44
2022-08-17T06:44:11.960Z,19.51
2022-08-17T06:47:05.082Z,19.57
2022-08-17T06:49:40.563Z,19.66
2022-08-17T06:52:46.536Z,19.72
2022-08-17T06:55:18.916Z,19.79
2022-08-17T06:57:51.310Z,19.85
2022-08-17T07:00:22.307Z,19.93
2022-08-17T07:02:54.323Z,19.96
2022-08-17T07:05:25.597Z,20.05
2022-08-17T07:08:04.549Z,20.13
2022-08-17T07:10:36.978Z,20.17
2022-08-17T07:13:18.186Z,20.25
2022-08-17T07:15:46.470Z,20.35
2022-08-17T07:18:14.413Z,20.43
2022-08-17T07:20:45.859Z,20.47
2022-08-17T07:23:18.973Z,20.57
2022-08-17T07:25:46.949Z,20.64
2022-08-17T07:28:22.858Z,20.73
2022-08-17T07:30:53.544Z,20.77
2022-08-17T07:33:24.065Z,20.88
2022-08-17T07:35:52.219Z,21.01
2022-08-17T07:38:24.763Z,21.09
2022-08-17T07:41:03.784Z,21.19
2022-08-17T07:43:34.048Z,21.26
2022-08-17T07:46:24.686Z,21.29
2022-08-17T07:48:55.075Z,21.43
2022-08-17T07:51:26.806Z,21.53
2022-08-17T07:54:12.894Z,21.62
2022-08-17T07:56:45.307Z,21.72
2022-08-17T07:59:18.055Z,21.82
2022-08-17T08:02:05.232Z,21.89
2022-08-17T08:07:31.305Z,22.11
2022-08-17T08:10:09.266Z,22.21
2022-08-17T08:12:40.257Z,22.31
2022-08-17T08:15:18.972Z,22.42
2022-08-17T08:17:51.976Z,22.54
2022-08-17T08:20:52.594Z,22.63
2022-08-17T08:23:15.540Z,22.72
2022-08-17T08:25:55.336Z,22.86
2022-08-17T08:28:29.288Z,22.97
2022-08-17T08:31:06.546Z,23.13
2022-08-17T08:33:51.895Z,23.22
2022-08-17T08:37:12.551Z,23.31
2022-08-17T08:39:21.839Z,23.42
2022-08-17T08:41:58.886Z,23.53
2022-08-17T08:45:00.113Z,23.64
2022-08-17T08:47:35.548Z,23.81
2022-08-17T08:50:37.567Z,23.94
2022-08-17T08:53:07.946Z,24.08
2022-08-17T08:55:46.734Z,24.20
2022-08-17T08:58:31.991Z,24.31
2022-08-17T09:01:17.154Z,24.42
2022-08-17T09:04:18.159Z,24.52
2022-08-17T09:06:57.958Z,24.62
2022-08-17T09:09:41.457Z,24.71
2022-08-17T09:12:16.818Z,24.88
2022-08-17T09:14:53.024Z,24.96
2022-08-17T09:17:23.225Z,25.04
2022-08-17T09:19:56.986Z,25.12
2022-08-17T09:22:33.702Z,25.19
2022-08-17T09:25:07.969Z,25.33
2022-08-17T09:27:52.076Z,25.40
2022-08-17T09:30:20.605Z,25.50
2022-08-17T09:32:55.298Z,25.58
2022-08-17T09:35:32.958Z,25.70
2022-08-17T09:38:32.758Z,25.90
2022-08-17T09:41:07.652Z,25.99
2022-08-17T09:43:55.305Z,26.04
2022-08-17T09:46:26.159Z,26.14
2022-08-17T09:48:58.542Z,26.19
2022-08-17T09:51:32.966Z,26.25
2022-08-17T09:54:21.088Z,26.35
2022-08-17T09:57:11.850Z,26.40
2022-08-17T09:59:54.511Z,26.45
2022-08-17T10:02:40.539Z,26.57
2022-08-17T10:05:12.133Z,26.62
2022-08-17T10:07:46.530Z,26.74
2022-08-17T10:10:19.628Z,26.86
2022-08-17T10:12:53.170Z,26.93
2022-08-17T10:15:36.974Z,26.97
2022-08-17T10:18:31.769Z,27.06
2022-08-17T10:21:21.369Z,27.06
2022-08-17T10:24:11.834Z,27.13
2022-08-17T10:26:55.801Z,27.22
2022-08-17T10:29:28.850Z,27.37
2022-08-17T10:32:01.411Z,27.36
2022-08-17T10:34:51.450Z,27.50
2022-08-17T10:37:52.219Z,27.57
2022-08-17T10:40:32.473Z,27.64
2022-08-17T10:43:03.823Z,27.72
2022-08-17T10:45:37.128Z,27.74
2022-08-17T10:48:27.208Z,27.84
2022-08-17T10:51:07.665Z,27.92
2022-08-17T10:53:54.061Z,27.95
2022-08-17T10:56:25.890Z,28.02
2022-08-17T10:58:55.544Z,28.09
2022-08-17T11:01:58.329Z,28.19
2022-08-17T11:04:36.701Z,28.23
2022-08-17T11:07:09.945Z,28.29
2022-08-17T11:09:50.453Z,28.29
2022-08-17T11:12:32.698Z,28.34
2022-08-17T11:15:11.101Z,28.36
2022-08-17T11:17:52.056Z,28.43
2022-08-17T11:20:37.557Z,28.57
2022-08-17T11:23:26.117Z,28.68
2022-08-17T11:25:56.944Z,28.66
2022-08-17T11:28:34.359Z,28.67
2022-08-17T11:31:05.461Z,28.76
2022-08-17T11:33:58.920Z,28.86
2022-08-17T11:36:54.801Z,28.98
2022-08-17T11:39:43.187Z,29.05
2022-08-17T11:42:25.554Z,29.00
2022-08-17T11:44:58.164Z,29.01
2022-08-17T11:48:09.109Z,29.09
2022-08-17T11:51:03.647Z,29.20
2022-08-17T11:56:59.220Z,29.22
2022-08-17T11:59:58.749Z,29.30
2022-08-17T12:02:38.796Z,29.34
2022-08-17T12:05:34.248Z,29.43
2022-08-17T12:08:14.807Z,29.39
2022-08-17T12:11:01.084Z,29.50
2022-08-17T12:13:38.501Z,29.67
2022-08-17T12:16:09.962Z,29.79
2022-08-17T12:18:39.758Z,29.91
2022-08-17T12:21:23.348Z,29.98
2022-08-17T12:23:58.972Z,30.05
2022-08-17T12:26:31.197Z,29.96
2022-08-17T12:29:03.180Z,30.05
2022-08-17T12:31:47.156Z,30.05
2022-08-17T12:34:19.001Z,30.09
2022-08-17T12:36:49.407Z,30.17
2022-08-17T12:39:21.370Z,30.17
2022-08-17T12:41:51.587Z,30.25
2022-08-17T12:44:21.447Z,30.38
2022-08-17T12:46:54.410Z,30.49
2022-08-17T12:49:29.827Z,30.47
2022-08-17T12:52:11.028Z,30.49
2022-08-17T12:54:57.653Z,30.41
2022-08-17T12:57:27.218Z,30.48
2022-08-17T12:59:59.475Z,30.66
2022-08-17T13:02:32.561Z,30.62
2022-08-17T13:05:01.721Z,30.61
2022-08-17T13:07:34.261Z,30.70
2022-08-17T13:10:02.830Z,30.88
2022-08-17T13:12:33.343Z,31.00
2022-08-17T13:15:01.514Z,31.13
2022-08-17T13:17:34.793Z,31.11
2022-08-17T13:20:06.053Z,31.26
2022-08-17T13:22:34.028Z,31.31
2022-08-17T13:25:06.440Z,31.18
2022-08-17T13:27:34.955Z,31.36
2022-08-17T13:30:06.812Z,31.35
2022-08-17T13:32:44.084Z,31.33
2022-08-17T13:35:49.881Z,31.35
2022-08-17T13:38:36.737Z,31.22
2022-08-17T13:41:07.444Z,31.48
2022-08-17T13:43:45.885Z,31.69
2022-08-17T13:46:20.274Z,31.73
2022-08-17T13:48:58.797Z,31.44
2022-08-17T13:51:30.306Z,31.57
2022-08-17T13:54:04.510Z,31.69
2022-08-17T13:56:47.737Z,31.76
2022-08-17T13:59:17.730Z,31.69
2022-08-17T14:02:07.099Z,31.59
2022-08-17T14:04:37.110Z,31.67
2022-08-17T14:07:26.536Z,31.79
2022-08-17T14:09:56.898Z,31.80
2022-08-17T14:12:27.522Z,31.72
2022-08-17T14:14:56.430Z,31.85
2022-08-17T14:17:24.853Z,31.97
2022-08-17T14:19:54.289Z,31.98
2022-08-17T14:22:25.713Z,32.03
2022-08-17T14:24:54.213Z,31.95
2022-08-17T14:27:22.316Z,32.02
2022-08-17T14:29:50.303Z,32.14
2022-08-17T14:32:20.957Z,32.16
2022-08-17T14:34:49.947Z,32.32
2022-08-17T14:37:20.179Z,32.26
2022-08-17T14:39:48.348Z,32.23
2022-08-17T14:42:16.453Z,32.28
2022-08-17T14:44:44.436Z,32.54
2022-08-17T14:47:14.867Z,32.75
2022-08-17T14:49:49.590Z,32.76
2022-08-17T14:52:21.507Z,32.97
2022-08-17T14:54:51.379Z,33.01
2022-08-17T14:57:24.645Z,33.04
2022-08-17T15:00:02.909Z,33.27
2022-08-17T15:02:31.356Z,33.38
2022-08-17T15:05:00.553Z,33.47
2022-08-17T15:07:30.604Z,33.50
2022-08-17T15:10:00.930Z,33.59
2022-08-17T15:12:32.791Z,33.78
2022-08-17T15:15:01.975Z,33.90
2022-08-17T15:17:43.694Z,33.67
2022-08-17T15:20:15.264Z,33.79
2022-08-17T15:22:45.851Z,33.92
2022-08-17T15:25:14.431Z,34.00
2022-08-17T15:27:42.530Z,34.13
2022-08-17T15:30:11.821Z,34.17
2022-08-17T15:32:41.450Z,34.27
2022-08-17T15:35:19.794Z,34.26
2022-08-17T15:37:58.549Z,34.13
2022-08-17T15:40:26.699Z,34.16
2022-08-17T15:42:54.849Z,34.33
2022-08-17T15:45:26.601Z,34.42
2022-08-17T15:47:54.936Z,34.45
2022-08-17T15:50:23.055Z,34.42
2022-08-17T15:52:58.134Z,34.53
2022-08-17T15:55:27.359Z,34.57
2022-08-17T15:57:55.591Z,34.47
2022-08-17T16:00:24.711Z,34.55
2022-08-17T16:03:44.584Z,34.54
2022-08-17T16:05:42.561Z,34.60
2022-08-17T16:08:14.788Z,34.64
2022-08-17T16:10:45.571Z,34.61
2022-08-17T16:13:17.341Z,34.56
2022-08-17T16:15:51.088Z,34.41
2022-08-17T16:18:30.886Z,34.38
2022-08-17T16:21:19.557Z,34.31
2022-08-17T16:23:50.147Z,34.13
2022-08-17T16:26:18.912Z,34.06
2022-08-17T16:28:47.369Z,34.06
2022-08-17T16:31:15.711Z,33.92
2022-08-17T16:33:43.921Z,33.85
2022-08-17T16:36:31.962Z,33.68
2022-08-17T16:39:01.502Z,33.58
2022-08-17T16:41:45.230Z,33.45
2022-08-17T16:44:15.197Z,33.42
2022-08-17T16:46:45.757Z,33.32
2022-08-17T16:49:25.771Z,33.21
2022-08-17T16:52:03.998Z,33.14
2022-08-17T16:54:35.384Z,33.08
2022-08-17T16:57:05.509Z,32.93
2022-08-17T16:59:41.908Z,32.88
2022-08-17T17:02:14.558Z,32.86
2022-08-17T17:04:48.109Z,32.77
2022-08-17T17:07:25.757Z,32.71
2022-08-17T17:09:56.352Z,32.57
2022-08-17T17:12:32.286Z,32.40
2022-08-17T17:15:21.885Z,32.21
2022-08-17T17:17:52.096Z,32.19
2022-08-17T17:20:25.760Z,32.14
2022-08-17T17:23:00.450Z,32.03
2022-08-17T17:25:34.800Z,32.00
2022-08-17T17:28:05.307Z,31.95
2022-08-17T17:30:40.880Z,31.89
2022-08-17T17:33:12.653Z,31.78
2022-08-17T17:35:46.080Z,31.72
2022-08-17T17:38:20.149Z,31.64
2022-08-17T17:40:53.046Z,31.52
2022-08-17T17:43:40.267Z,31.44
2022-08-17T17:46:27.960Z,31.33
2022-08-17T17:48:57.049Z,31.23
2022-08-17T17:52:05.277Z,31.15
2022-08-17T17:54:29.481Z,31.05
2022-08-17T17:57:04.346Z,30.95
2022-08-17T17:59:43.918Z,30.90
2022-08-17T18:02:36.916Z,30.80
2022-08-17T18:05:10.164Z,30.73
2022-08-17T18:07:43.782Z,30.65
2022-08-17T18:10:19.626Z,30.55
2022-08-17T18:13:05.436Z,30.44
2022-08-17T18:15:37.350Z,30.30
2022-08-17T18:18:37.727Z,30.13
2022-08-17T18:21:15.597Z,29.88
2022-08-17T18:23:54.605Z,29.66
2022-08-17T18:26:37.739Z,29.44
2022-08-17T18:29:25.007Z,29.31
2022-08-17T18:32:27.817Z,29.09
2022-08-17T18:34:58.300Z,28.93
2022-08-17T18:37:47.760Z,28.74
2022-08-17T18:40:33.641Z,28.64
2022-08-17T18:43:11.643Z,28.48
2022-08-17T18:45:44.431Z,28.33
2022-08-17T18:48:23.115Z,28.18
2022-08-17T18:50:53.453Z,28.06
2022-08-17T18:53:30.411Z,27.94
2022-08-17T18:56:30.878Z,27.85
2022-08-17T18:59:13.577Z,27.79
2022-08-17T19:01:53.395Z,27.72
2022-08-17T19:04:38.146Z,27.63
2022-08-17T19:07:14.129Z,27.55
2022-08-17T19:09:45.985Z,27.49
2022-08-17T19:12:26.945Z,27.41
2022-08-17T19:14:56.756Z,27.33
2022-08-17T19:17:31.556Z,27.28
2022-08-17T19:20:02.434Z,27.19
2022-08-17T19:22:39.655Z,27.12
2022-08-17T19:25:16.129Z,27.07
2022-08-17T19:27:49.992Z,27.01
2022-08-17T19:30:21.066Z,26.94
2022-08-17T19:32:50.715Z,26.88
2022-08-17T19:35:20.256Z,26.81
2022-08-17T19:37:56.474Z,26.75
2022-08-17T19:40:51.594Z,26.68
2022-08-17T19:43:24.235Z,26.58
2022-08-17T19:45:59.513Z,26.51
2022-08-17T19:48:39.554Z,26.44
2022-08-17T19:51:10.728Z,26.40
2022-08-17T19:54:04.399Z,26.34
2022-08-17T19:56:36.484Z,26.29
2022-08-17T19:59:09.721Z,26.25
2022-08-17T20:01:43.427Z,26.24
2022-08-17T20:04:32.223Z,26.22
2022-08-17T20:07:04.681Z,26.17
2022-08-17T20:09:38.449Z,26.15
2022-08-17T20:12:10.473Z,26.10
2022-08-17T20:14:53.944Z,26.05
2022-08-17T20:17:28.414Z,26.00
2022-08-17T20:20:03.737Z,25.97
2022-08-17T20:22:50.386Z,25.93
2022-08-17T20:25:30.493Z,25.91
2022-08-17T20:28:06.234Z,25.90
2022-08-17T20:30:38.384Z,25.85
2022-08-17T20:33:08.213Z,25.84
2022-08-17T20:36:01.988Z,25.83
2022-08-17T20:38:41.669Z,25.80
2022-08-17T20:41:15.598Z,25.79
2022-08-17T20:43:52.238Z,25.76
2022-08-17T20:46:28.160Z,25.76
2022-08-17T20:48:58.550Z,25.73
2022-08-17T20:51:34.655Z,25.71
2022-08-17T20:54:35.025Z,25.68
2022-08-17T20:57:03.269Z,25.66
2022-08-17T21:00:03.105Z,25.63
2022-08-17T21:02:32.902Z,25.60
2022-08-17T21:05:07.210Z,25.59
2022-08-17T21:07:55.717Z,25.56
2022-08-17T21:10:35.559Z,25.52
2022-08-17T21:13:34.857Z,25.32
2022-08-17T21:16:08.849Z,25.36
2022-08-17T21:18:41.931Z,25.29
2022-08-17T21:21:24.232Z,25.34
2022-08-17T21:24:05.415Z,25.31
2022-08-17T21:26:50.484Z,25.26
2022-08-17T21:29:30.906Z,25.25
2022-08-17T21:32:23.687Z,25.23
2022-08-17T21:35:27.286Z,25.20
2022-08-17T21:38:00.392Z,25.16
2022-08-17T21:40:31.451Z,25.15
2022-08-17T21:43:02.099Z,25.15
2022-08-17T21:45:31.252Z,25.15
2022-08-17T21:48:13.983Z,25.13
2022-08-17T21:50:45.200Z,25.09
2022-08-17T21:53:15.069Z,25.05
2022-08-17T21:55:44.708Z,25.03
2022-08-17T21:58:28.861Z,25.05
2022-08-17T22:01:22.328Z,25.03
2022-08-17T22:03:58.520Z,25.00
2022-08-17T22:06:29.185Z,24.97
2022-08-17T22:09:02.279Z,24.91
2022-08-17T22:11:31.804Z,24.91
2022-08-17T22:14:05.360Z,24.90
2022-08-17T22:16:34.848Z,24.86
2022-08-17T22:19:03.067Z,24.83
2022-08-17T22:21:31.094Z,24.81
2022-08-17T22:24:04.879Z,24.67
2022-08-17T22:27:00.729Z,24.63
2022-08-17T22:29:47.201Z,24.62
2022-08-17T22:32:34.480Z,24.59
2022-08-17T22:35:30.559Z,24.47
2022-08-17T22:38:32.137Z,24.45
2022-08-17T22:41:31.941Z,24.44
2022-08-17T22:44:09.051Z,24.46
2022-08-17T22:46:40.628Z,24.44
2022-08-17T22:49:09.015Z,24.46
2022-08-17T22:51:37.365Z,24.48
2022-08-17T22:54:34.508Z,24.48
2022-08-17T22:57:21.776Z,24.51
2022-08-17T22:59:53.873Z,24.50
2022-08-17T23:02:24.840Z,24.44
2022-08-17T23:04:55.681Z,24.49
2022-08-17T23:07:23.720Z,24.52
2022-08-17T23:09:53.387Z,24.51
2022-08-17T23:12:25.565Z,24.27
2022-08-17T23:15:00.668Z,24.33
2022-08-17T23:17:33.926Z,24.22
2022-08-17T23:20:06.320Z,23.70
2022-08-17T23:22:34.431Z,23.29
2022-08-17T23:25:03.392Z,23.23
2022-08-17T23:27:31.726Z,23.30
2022-08-17T23:30:01.165Z,23.21
2022-08-17T23:32:29.256Z,23.06
2022-08-17T23:34:59.142Z,22.87
2022-08-17T23:37:27.647Z,22.91
2022-08-17T23:39:55.689Z,22.85
2022-08-17T23:42:24.174Z,22.71
2022-08-17T23:44:52.174Z,22.48
2022-08-17T23:47:21.577Z,22.13
2022-08-17T23:49:49.678Z,22.24
2022-08-17T23:52:22.706Z,22.14
2022-08-17T23:54:50.782Z,22.16
2022-08-17T23:57:33.850Z,22.14
